Terminal Aerodrome Forecast
Issued by NWS

Home | Current Version | Previous Version | Text Only | Print | Product List | Glossary On
Versions: 1 2 3 4 5 6 7 8 9 10 11 12 13 14 15 16 17 18 19 20
531
FTUS41 KBGM 291129
TAFRME
TAF
KRME 291129Z 2912/3012 32006KT P6SM SCT040
     FM291600 31012G18KT P6SM BKN040
     FM292300 33007KT P6SM SCT200=

USA.gov is the U.S. government's official web portal to all federal, state and local government web resources and services.